sensor_id;sensor_type;location;lat;lon;timestamp;P1;durP1;ratioP1;P2;durP2;ratioP2
5295;SDS011;2670;42.720;23.336;2024-03-02T00:00:49;42.67;;;24.53;;
5295;SDS011;2670;42.720;23.336;2024-03-02T00:03:16;42.83;;;21.93;;
5295;SDS011;2670;42.720;23.336;2024-03-02T00:05:44;39.87;;;21.60;;
5295;SDS011;2670;42.720;23.336;2024-03-02T00:08:17;49.20;;;21.77;;
5295;SDS011;2670;42.720;23.336;2024-03-02T00:10:49;42.27;;;24.10;;
5295;SDS011;2670;42.720;23.336;2024-03-02T00:13:16;47.83;;;23.10;;
5295;SDS011;2670;42.720;23.336;2024-03-02T00:15:48;46.13;;;21.33;;
5295;SDS011;2670;42.720;23.336;2024-03-02T00:18:18;40.10;;;21.50;;
5295;SDS011;2670;42.720;23.336;2024-03-02T00:20:47;42.40;;;22.13;;
5295;SDS011;2670;42.720;23.336;2024-03-02T00:23:15;41.23;;;21.70;;
5295;SDS011;2670;42.720;23.336;2024-03-02T00:25:44;37.90;;;20.73;;
5295;SDS011;2670;42.720;23.336;2024-03-02T00:28:13;39.30;;;20.43;;
5295;SDS011;2670;42.720;23.336;2024-03-02T00:33:26;43.50;;;21.60;;
5295;SDS011;2670;42.720;23.336;2024-03-02T00:35:55;39.80;;;22.10;;
5295;SDS011;2670;42.720;23.336;2024-03-02T00:38:22;47.70;;;22.57;;
5295;SDS011;2670;42.720;23.336;2024-03-02T00:40:50;41.93;;;21.83;;
5295;SDS011;2670;42.720;23.336;2024-03-02T00:43:35;45.80;;;22.80;;
5295;SDS011;2670;42.720;23.336;2024-03-02T00:46:07;51.13;;;22.17;;
5295;SDS011;2670;42.720;23.336;2024-03-02T00:48:34;39.80;;;21.57;;
5295;SDS011;2670;42.720;23.336;2024-03-02T00:51:03;35.73;;;20.10;;
5295;SDS011;2670;42.720;23.336;2024-03-02T00:53:31;40.37;;;22.77;;
5295;SDS011;2670;42.720;23.336;2024-03-02T00:55:58;39.77;;;21.67;;
5295;SDS011;2670;42.720;23.336;2024-03-02T00:58:25;41.63;;;22.40;;
5295;SDS011;2670;42.720;23.336;2024-03-02T01:00:52;45.00;;;22.23;;
5295;SDS011;2670;42.720;23.336;2024-03-02T01:03:19;37.97;;;21.43;;
5295;SDS011;2670;42.720;23.336;2024-03-02T01:05:45;40.30;;;19.80;;
5295;SDS011;2670;42.720;23.336;2024-03-02T01:08:13;38.73;;;21.73;;
5295;SDS011;2670;42.720;23.336;2024-03-02T01:10:41;43.07;;;22.00;;
5295;SDS011;2670;42.720;23.336;2024-03-02T01:13:08;35.50;;;19.27;;
5295;SDS011;2670;42.720;23.336;2024-03-02T01:15:35;37.90;;;20.83;;
5295;SDS011;2670;42.720;23.336;2024-03-02T01:18:02;43.30;;;20.87;;
5295;SDS011;2670;42.720;23.336;2024-03-02T01:20:29;50.80;;;22.50;;
5295;SDS011;2670;42.720;23.336;2024-03-02T01:22:55;37.50;;;21.07;;
5295;SDS011;2670;42.720;23.336;2024-03-02T01:25:23;41.30;;;21.70;;
5295;SDS011;2670;42.720;23.336;2024-03-02T01:27:50;40.40;;;22.13;;
5295;SDS011;2670;42.720;23.336;2024-03-02T01:30:17;38.97;;;20.50;;
5295;SDS011;2670;42.720;23.336;2024-03-02T01:32:44;46.27;;;21.50;;
5295;SDS011;2670;42.720;23.336;2024-03-02T01:35:10;38.97;;;20.60;;
5295;SDS011;2670;42.720;23.336;2024-03-02T01:37:37;41.20;;;21.07;;
5295;SDS011;2670;42.720;23.336;2024-03-02T01:40:04;42.73;;;21.03;;
5295;SDS011;2670;42.720;23.336;2024-03-02T01:42:36;39.23;;;21.33;;
5295;SDS011;2670;42.720;23.336;2024-03-02T01:45:03;44.50;;;21.57;;
5295;SDS011;2670;42.720;23.336;2024-03-02T01:47:31;39.00;;;20.80;;
5295;SDS011;2670;42.720;23.336;2024-03-02T01:49:58;37.93;;;21.93;;
5295;SDS011;2670;42.720;23.336;2024-03-02T01:52:25;42.07;;;21.07;;
5295;SDS011;2670;42.720;23.336;2024-03-02T01:54:52;43.60;;;19.93;;
5295;SDS011;2670;42.720;23.336;2024-03-02T01:57:19;36.60;;;20.43;;
5295;SDS011;2670;42.720;23.336;2024-03-02T01:59:47;36.77;;;20.53;;
5295;SDS011;2670;42.720;23.336;2024-03-02T02:02:15;34.40;;;19.47;;
5295;SDS011;2670;42.720;23.336;2024-03-02T02:04:42;39.90;;;20.73;;
5295;SDS011;2670;42.720;23.336;2024-03-02T02:07:09;37.53;;;21.43;;
5295;SDS011;2670;42.720;23.336;2024-03-02T02:09:36;39.90;;;20.33;;
5295;SDS011;2670;42.720;23.336;2024-03-02T02:12:03;44.90;;;20.70;;
5295;SDS011;2670;42.720;23.336;2024-03-02T02:14:32;41.10;;;21.47;;
5295;SDS011;2670;42.720;23.336;2024-03-02T02:17:00;41.03;;;22.20;;
5295;SDS011;2670;42.720;23.336;2024-03-02T02:19:27;39.20;;;22.70;;
5295;SDS011;2670;42.720;23.336;2024-03-02T02:21:55;45.60;;;22.20;;
5295;SDS011;2670;42.720;23.336;2024-03-02T02:24:21;41.07;;;21.53;;
5295;SDS011;2670;42.720;23.336;2024-03-02T02:26:48;38.83;;;21.53;;
5295;SDS011;2670;42.720;23.336;2024-03-02T02:29:15;40.47;;;19.80;;
5295;SDS011;2670;42.720;23.336;2024-03-02T02:31:42;36.33;;;22.47;;
5295;SDS011;2670;42.720;23.336;2024-03-02T02:34:09;43.50;;;23.53;;
5295;SDS011;2670;42.720;23.336;2024-03-02T02:36:36;42.83;;;21.50;;
5295;SDS011;2670;42.720;23.336;2024-03-02T02:39:06;44.97;;;21.27;;
5295;SDS011;2670;42.720;23.336;2024-03-02T02:41:36;38.23;;;22.17;;
5295;SDS011;2670;42.720;23.336;2024-03-02T02:44:02;40.53;;;21.93;;
5295;SDS011;2670;42.720;23.336;2024-03-02T02:46:29;43.93;;;22.00;;
5295;SDS011;2670;42.720;23.336;2024-03-02T02:48:56;45.70;;;22.27;;
5295;SDS011;2670;42.720;23.336;2024-03-02T02:51:23;45.60;;;22.27;;
5295;SDS011;2670;42.720;23.336;2024-03-02T02:53:50;42.93;;;22.97;;
5295;SDS011;2670;42.720;23.336;2024-03-02T02:56:17;36.27;;;19.93;;
5295;SDS011;2670;42.720;23.336;2024-03-02T02:58:44;41.07;;;21.30;;
5295;SDS011;2670;42.720;23.336;2024-03-02T03:01:10;44.97;;;23.77;;
5295;SDS011;2670;42.720;23.336;2024-03-02T03:03:37;47.53;;;21.07;;
5295;SDS011;2670;42.720;23.336;2024-03-02T03:06:04;45.60;;;21.47;;
5295;SDS011;2670;42.720;23.336;2024-03-02T03:08:30;42.80;;;21.70;;
5295;SDS011;2670;42.720;23.336;2024-03-02T03:10:58;43.10;;;21.40;;
5295;SDS011;2670;42.720;23.336;2024-03-02T03:13:26;41.83;;;21.47;;
5295;SDS011;2670;42.720;23.336;2024-03-02T03:15:53;40.20;;;20.77;;
5295;SDS011;2670;42.720;23.336;2024-03-02T03:18:19;39.47;;;19.43;;
5295;SDS011;2670;42.720;23.336;2024-03-02T03:20:46;44.77;;;21.73;;
5295;SDS011;2670;42.720;23.336;2024-03-02T03:23:13;49.27;;;25.97;;
5295;SDS011;2670;42.720;23.336;2024-03-02T03:25:41;41.13;;;22.20;;
5295;SDS011;2670;42.720;23.336;2024-03-02T03:28:08;42.67;;;23.40;;
5295;SDS011;2670;42.720;23.336;2024-03-02T03:30:37;55.40;;;27.17;;
5295;SDS011;2670;42.720;23.336;2024-03-02T03:33:04;46.50;;;21.07;;
5295;SDS011;2670;42.720;23.336;2024-03-02T03:35:32;42.90;;;21.70;;
5295;SDS011;2670;42.720;23.336;2024-03-02T03:37:59;43.37;;;21.37;;
5295;SDS011;2670;42.720;23.336;2024-03-02T03:40:26;38.67;;;21.00;;
5295;SDS011;2670;42.720;23.336;2024-03-02T03:42:53;42.17;;;22.63;;
5295;SDS011;2670;42.720;23.336;2024-03-02T03:45:21;34.97;;;20.53;;
5295;SDS011;2670;42.720;23.336;2024-03-02T03:47:51;37.60;;;20.90;;
5295;SDS011;2670;42.720;23.336;2024-03-02T03:50:18;41.20;;;18.97;;
5295;SDS011;2670;42.720;23.336;2024-03-02T03:52:45;39.60;;;19.93;;
5295;SDS011;2670;42.720;23.336;2024-03-02T03:55:12;40.93;;;21.50;;
5295;SDS011;2670;42.720;23.336;2024-03-02T03:57:38;39.70;;;21.17;;
5295;SDS011;2670;42.720;23.336;2024-03-02T04:00:06;39.37;;;20.87;;
5295;SDS011;2670;42.720;23.336;2024-03-02T04:02:35;36.47;;;21.27;;
5295;SDS011;2670;42.720;23.336;2024-03-02T04:05:03;38.20;;;20.47;;
5295;SDS011;2670;42.720;23.336;2024-03-02T04:07:34;42.33;;;20.40;;
5295;SDS011;2670;42.720;23.336;2024-03-02T04:10:05;36.87;;;20.47;;
5295;SDS011;2670;42.720;23.336;2024-03-02T04:12:34;43.70;;;21.10;;
5295;SDS011;2670;42.720;23.336;2024-03-02T04:15:00;43.33;;;21.90;;
5295;SDS011;2670;42.720;23.336;2024-03-02T04:17:29;40.50;;;20.47;;
5295;SDS011;2670;42.720;23.336;2024-03-02T04:19:57;40.50;;;20.60;;
5295;SDS011;2670;42.720;23.336;2024-03-02T04:22:26;36.80;;;19.40;;
5295;SDS011;2670;42.720;23.336;2024-03-02T04:24:52;37.17;;;20.47;;
5295;SDS011;2670;42.720;23.336;2024-03-02T04:27:19;39.70;;;21.33;;
5295;SDS011;2670;42.720;23.336;2024-03-02T04:29:45;35.87;;;19.80;;
5295;SDS011;2670;42.720;23.336;2024-03-02T04:32:12;42.40;;;21.90;;
5295;SDS011;2670;42.720;23.336;2024-03-02T04:34:38;38.37;;;21.40;;
5295;SDS011;2670;42.720;23.336;2024-03-02T04:37:05;39.53;;;20.43;;
5295;SDS011;2670;42.720;23.336;2024-03-02T04:39:35;41.70;;;20.80;;
5295;SDS011;2670;42.720;23.336;2024-03-02T04:42:02;43.57;;;22.33;;
5295;SDS011;2670;42.720;23.336;2024-03-02T04:44:29;45.50;;;21.60;;
5295;SDS011;2670;42.720;23.336;2024-03-02T04:46:55;43.50;;;21.03;;
5295;SDS011;2670;42.720;23.336;2024-03-02T04:49:22;42.27;;;21.20;;
5295;SDS011;2670;42.720;23.336;2024-03-02T04:51:49;43.80;;;22.83;;
5295;SDS011;2670;42.720;23.336;2024-03-02T04:54:16;46.50;;;22.53;;
5295;SDS011;2670;42.720;23.336;2024-03-02T04:56:44;42.17;;;22.70;;
5295;SDS011;2670;42.720;23.336;2024-03-02T04:59:14;40.20;;;22.93;;
5295;SDS011;2670;42.720;23.336;2024-03-02T05:01:41;41.10;;;19.97;;
5295;SDS011;2670;42.720;23.336;2024-03-02T05:04:07;39.73;;;20.27;;
5295;SDS011;2670;42.720;23.336;2024-03-02T05:06:36;45.37;;;23.30;;
5295;SDS011;2670;42.720;23.336;2024-03-02T05:09:04;46.27;;;22.67;;
5295;SDS011;2670;42.720;23.336;2024-03-02T05:11:31;39.97;;;21.50;;
5295;SDS011;2670;42.720;23.336;2024-03-02T05:14:22;44.30;;;22.63;;
5295;SDS011;2670;42.720;23.336;2024-03-02T05:16:49;44.37;;;21.33;;
5295;SDS011;2670;42.720;23.336;2024-03-02T05:19:15;44.50;;;22.57;;
5295;SDS011;2670;42.720;23.336;2024-03-02T05:21:42;43.77;;;22.27;;
5295;SDS011;2670;42.720;23.336;2024-03-02T05:24:09;44.53;;;22.40;;
5295;SDS011;2670;42.720;23.336;2024-03-02T05:26:36;47.07;;;23.87;;
5295;SDS011;2670;42.720;23.336;2024-03-02T05:29:02;47.10;;;23.40;;
5295;SDS011;2670;42.720;23.336;2024-03-02T05:31:30;50.57;;;25.07;;
5295;SDS011;2670;42.720;23.336;2024-03-02T05:33:57;46.40;;;23.40;;
5295;SDS011;2670;42.720;23.336;2024-03-02T05:36:24;47.97;;;22.67;;
5295;SDS011;2670;42.720;23.336;2024-03-02T05:38:51;48.77;;;24.03;;
5295;SDS011;2670;42.720;23.336;2024-03-02T05:41:17;50.93;;;24.63;;
5295;SDS011;2670;42.720;23.336;2024-03-02T05:43:44;50.50;;;24.60;;
5295;SDS011;2670;42.720;23.336;2024-03-02T05:46:11;46.80;;;23.10;;
5295;SDS011;2670;42.720;23.336;2024-03-02T05:48:39;57.80;;;24.73;;
5295;SDS011;2670;42.720;23.336;2024-03-02T05:51:06;49.37;;;22.90;;
5295;SDS011;2670;42.720;23.336;2024-03-02T05:53:32;59.73;;;25.27;;
5295;SDS011;2670;42.720;23.336;2024-03-02T05:56:00;45.50;;;22.60;;
5295;SDS011;2670;42.720;23.336;2024-03-02T05:58:26;57.00;;;28.23;;
5295;SDS011;2670;42.720;23.336;2024-03-02T06:01:03;56.93;;;27.87;;
5295;SDS011;2670;42.720;23.336;2024-03-02T06:03:30;59.63;;;28.60;;
5295;SDS011;2670;42.720;23.336;2024-03-02T06:05:58;49.23;;;25.37;;
5295;SDS011;2670;42.720;23.336;2024-03-02T06:08:25;58.20;;;29.93;;
5295;SDS011;2670;42.720;23.336;2024-03-02T06:10:52;58.53;;;27.30;;
5295;SDS011;2670;42.720;23.336;2024-03-02T06:13:19;57.30;;;29.20;;
5295;SDS011;2670;42.720;23.336;2024-03-02T06:15:45;58.77;;;27.43;;
5295;SDS011;2670;42.720;23.336;2024-03-02T06:18:12;56.90;;;26.20;;
5295;SDS011;2670;42.720;23.336;2024-03-02T06:20:39;56.80;;;27.00;;
5295;SDS011;2670;42.720;23.336;2024-03-02T06:23:07;67.10;;;29.10;;
5295;SDS011;2670;42.720;23.336;2024-03-02T06:25:34;55.83;;;27.93;;
5295;SDS011;2670;42.720;23.336;2024-03-02T06:28:01;76.07;;;32.27;;
5295;SDS011;2670;42.720;23.336;2024-03-02T06:30:29;53.80;;;25.23;;
5295;SDS011;2670;42.720;23.336;2024-03-02T06:32:56;57.63;;;25.33;;
5295;SDS011;2670;42.720;23.336;2024-03-02T06:35:22;57.60;;;25.53;;
5295;SDS011;2670;42.720;23.336;2024-03-02T06:37:49;64.27;;;30.63;;
5295;SDS011;2670;42.720;23.336;2024-03-02T06:40:17;77.57;;;36.33;;
5295;SDS011;2670;42.720;23.336;2024-03-02T06:42:44;56.20;;;29.10;;
5295;SDS011;2670;42.720;23.336;2024-03-02T06:45:11;60.17;;;26.70;;
5295;SDS011;2670;42.720;23.336;2024-03-02T06:47:37;52.70;;;23.40;;
5295;SDS011;2670;42.720;23.336;2024-03-02T06:50:04;63.23;;;24.13;;
5295;SDS011;2670;42.720;23.336;2024-03-02T06:52:32;53.03;;;25.10;;
5295;SDS011;2670;42.720;23.336;2024-03-02T06:54:58;58.73;;;25.20;;
5295;SDS011;2670;42.720;23.336;2024-03-02T06:57:26;55.03;;;23.67;;
5295;SDS011;2670;42.720;23.336;2024-03-02T06:59:53;54.23;;;24.67;;
5295;SDS011;2670;42.720;23.336;2024-03-02T07:02:23;56.70;;;25.30;;
5295;SDS011;2670;42.720;23.336;2024-03-02T07:04:51;60.67;;;23.77;;
5295;SDS011;2670;42.720;23.336;2024-03-02T07:07:18;54.43;;;24.47;;
5295;SDS011;2670;42.720;23.336;2024-03-02T07:09:45;48.37;;;22.73;;
5295;SDS011;2670;42.720;23.336;2024-03-02T07:12:12;53.93;;;24.47;;
5295;SDS011;2670;42.720;23.336;2024-03-02T07:14:39;55.43;;;23.73;;
5295;SDS011;2670;42.720;23.336;2024-03-02T07:17:38;54.13;;;24.00;;
5295;SDS011;2670;42.720;23.336;2024-03-02T07:20:05;55.50;;;25.43;;
5295;SDS011;2670;42.720;23.336;2024-03-02T07:22:32;59.40;;;24.63;;
5295;SDS011;2670;42.720;23.336;2024-03-02T07:24:59;51.37;;;24.47;;
5295;SDS011;2670;42.720;23.336;2024-03-02T07:27:26;44.93;;;22.17;;
5295;SDS011;2670;42.720;23.336;2024-03-02T07:29:54;49.80;;;23.50;;
5295;SDS011;2670;42.720;23.336;2024-03-02T07:32:21;48.03;;;22.80;;
5295;SDS011;2670;42.720;23.336;2024-03-02T07:34:47;55.77;;;23.87;;
5295;SDS011;2670;42.720;23.336;2024-03-02T07:37:16;55.17;;;24.20;;
5295;SDS011;2670;42.720;23.336;2024-03-02T07:39:43;49.70;;;23.70;;
5295;SDS011;2670;42.720;23.336;2024-03-02T07:42:10;50.70;;;22.27;;
5295;SDS011;2670;42.720;23.336;2024-03-02T07:44:37;47.27;;;23.20;;
5295;SDS011;2670;42.720;23.336;2024-03-02T07:47:06;53.30;;;24.30;;
5295;SDS011;2670;42.720;23.336;2024-03-02T07:49:33;47.03;;;23.30;;
5295;SDS011;2670;42.720;23.336;2024-03-02T07:51:59;50.90;;;21.43;;
5295;SDS011;2670;42.720;23.336;2024-03-02T07:54:26;44.20;;;21.97;;
5295;SDS011;2670;42.720;23.336;2024-03-02T07:56:53;48.17;;;20.97;;
5295;SDS011;2670;42.720;23.336;2024-03-02T07:59:19;43.50;;;22.23;;
5295;SDS011;2670;42.720;23.336;2024-03-02T08:01:49;43.50;;;22.00;;
5295;SDS011;2670;42.720;23.336;2024-03-02T08:04:17;53.17;;;23.57;;
5295;SDS011;2670;42.720;23.336;2024-03-02T08:06:45;44.40;;;23.53;;
5295;SDS011;2670;42.720;23.336;2024-03-02T08:09:12;55.93;;;25.40;;
5295;SDS011;2670;42.720;23.336;2024-03-02T08:11:39;52.90;;;25.27;;
5295;SDS011;2670;42.720;23.336;2024-03-02T08:14:05;55.67;;;26.70;;
5295;SDS011;2670;42.720;23.336;2024-03-02T08:16:32;49.33;;;24.80;;
5295;SDS011;2670;42.720;23.336;2024-03-02T08:18:59;47.43;;;24.20;;
5295;SDS011;2670;42.720;23.336;2024-03-02T08:21:27;62.53;;;25.70;;
5295;SDS011;2670;42.720;23.336;2024-03-02T08:23:55;47.23;;;24.33;;
5295;SDS011;2670;42.720;23.336;2024-03-02T08:26:23;53.83;;;24.17;;
5295;SDS011;2670;42.720;23.336;2024-03-02T08:28:50;48.87;;;22.40;;
5295;SDS011;2670;42.720;23.336;2024-03-02T08:31:17;49.87;;;25.33;;
5295;SDS011;2670;42.720;23.336;2024-03-02T08:33:43;58.47;;;26.83;;
5295;SDS011;2670;42.720;23.336;2024-03-02T08:36:10;45.73;;;23.17;;
5295;SDS011;2670;42.720;23.336;2024-03-02T08:38:38;47.73;;;26.10;;
5295;SDS011;2670;42.720;23.336;2024-03-02T08:41:07;47.87;;;24.40;;
5295;SDS011;2670;42.720;23.336;2024-03-02T08:43:34;52.70;;;23.73;;
5295;SDS011;2670;42.720;23.336;2024-03-02T08:46:00;59.57;;;23.90;;
5295;SDS011;2670;42.720;23.336;2024-03-02T08:48:27;46.13;;;22.80;;
5295;SDS011;2670;42.720;23.336;2024-03-02T08:50:54;49.93;;;23.20;;
5295;SDS011;2670;42.720;23.336;2024-03-02T08:53:21;51.43;;;24.30;;
5295;SDS011;2670;42.720;23.336;2024-03-02T08:55:49;50.37;;;24.27;;
5295;SDS011;2670;42.720;23.336;2024-03-02T08:58:16;47.37;;;24.83;;
5295;SDS011;2670;42.720;23.336;2024-03-02T09:00:42;53.90;;;27.17;;
5295;SDS011;2670;42.720;23.336;2024-03-02T09:03:09;46.90;;;22.73;;
5295;SDS011;2670;42.720;23.336;2024-03-02T09:05:36;45.10;;;21.90;;
5295;SDS011;2670;42.720;23.336;2024-03-02T09:08:03;50.27;;;22.97;;
5295;SDS011;2670;42.720;23.336;2024-03-02T09:10:30;43.07;;;20.73;;
5295;SDS011;2670;42.720;23.336;2024-03-02T09:12:59;42.47;;;21.20;;
5295;SDS011;2670;42.720;23.336;2024-03-02T09:15:26;48.53;;;22.60;;
5295;SDS011;2670;42.720;23.336;2024-03-02T09:17:53;44.13;;;22.90;;
5295;SDS011;2670;42.720;23.336;2024-03-02T09:20:19;52.60;;;26.20;;
5295;SDS011;2670;42.720;23.336;2024-03-02T09:22:46;55.70;;;26.20;;
5295;SDS011;2670;42.720;23.336;2024-03-02T09:25:13;52.20;;;25.23;;
5295;SDS011;2670;42.720;23.336;2024-03-02T09:27:41;47.87;;;22.50;;
5295;SDS011;2670;42.720;23.336;2024-03-02T09:30:09;49.70;;;24.07;;
5295;SDS011;2670;42.720;23.336;2024-03-02T09:32:38;48.67;;;24.83;;
5295;SDS011;2670;42.720;23.336;2024-03-02T09:35:05;44.93;;;22.00;;
5295;SDS011;2670;42.720;23.336;2024-03-02T09:37:32;42.23;;;23.30;;
5295;SDS011;2670;42.720;23.336;2024-03-02T09:39:59;51.47;;;23.27;;
5295;SDS011;2670;42.720;23.336;2024-03-02T09:42:26;45.23;;;23.60;;
5295;SDS011;2670;42.720;23.336;2024-03-02T09:44:53;46.50;;;22.20;;
5295;SDS011;2670;42.720;23.336;2024-03-02T09:47:21;42.13;;;20.87;;
5295;SDS011;2670;42.720;23.336;2024-03-02T09:49:48;46.93;;;21.80;;
5295;SDS011;2670;42.720;23.336;2024-03-02T09:52:15;47.40;;;22.47;;
5295;SDS011;2670;42.720;23.336;2024-03-02T09:54:42;43.50;;;22.20;;
5295;SDS011;2670;42.720;23.336;2024-03-02T09:57:09;40.27;;;21.40;;
5295;SDS011;2670;42.720;23.336;2024-03-02T09:59:36;43.40;;;22.90;;
5295;SDS011;2670;42.720;23.336;2024-03-02T10:02:03;44.97;;;24.40;;
5295;SDS011;2670;42.720;23.336;2024-03-02T10:04:33;44.33;;;22.37;;
5295;SDS011;2670;42.720;23.336;2024-03-02T10:07:10;43.50;;;23.50;;
5295;SDS011;2670;42.720;23.336;2024-03-02T10:09:38;44.90;;;22.17;;
5295;SDS011;2670;42.720;23.336;2024-03-02T10:12:05;42.30;;;20.70;;
5295;SDS011;2670;42.720;23.336;2024-03-02T10:14:33;47.83;;;21.97;;
5295;SDS011;2670;42.720;23.336;2024-03-02T10:17:02;42.00;;;20.30;;
5295;SDS011;2670;42.720;23.336;2024-03-02T10:19:30;40.20;;;20.80;;
5295;SDS011;2670;42.720;23.336;2024-03-02T10:21:59;47.20;;;21.37;;
5295;SDS011;2670;42.720;23.336;2024-03-02T10:24:27;41.23;;;22.00;;
5295;SDS011;2670;42.720;23.336;2024-03-02T10:27:00;47.50;;;21.63;;
5295;SDS011;2670;42.720;23.336;2024-03-02T10:29:33;40.67;;;20.77;;
5295;SDS011;2670;42.720;23.336;2024-03-02T10:32:02;44.07;;;22.27;;
5295;SDS011;2670;42.720;23.336;2024-03-02T10:34:29;47.30;;;22.37;;
5295;SDS011;2670;42.720;23.336;2024-03-02T10:36:57;39.90;;;20.40;;
5295;SDS011;2670;42.720;23.336;2024-03-02T10:39:26;38.63;;;19.90;;
5295;SDS011;2670;42.720;23.336;2024-03-02T10:41:54;49.13;;;22.50;;
5295;SDS011;2670;42.720;23.336;2024-03-02T10:44:22;42.00;;;22.47;;
5295;SDS011;2670;42.720;23.336;2024-03-02T10:46:50;44.00;;;19.33;;
5295;SDS011;2670;42.720;23.336;2024-03-02T10:49:19;40.30;;;20.97;;
5295;SDS011;2670;42.720;23.336;2024-03-02T10:51:49;35.70;;;19.63;;
5295;SDS011;2670;42.720;23.336;2024-03-02T10:54:17;39.17;;;18.53;;
5295;SDS011;2670;42.720;23.336;2024-03-02T10:56:51;46.60;;;20.90;;
5295;SDS011;2670;42.720;23.336;2024-03-02T10:59:21;37.70;;;19.10;;
5295;SDS011;2670;42.720;23.336;2024-03-02T11:01:53;38.87;;;20.83;;
5295;SDS011;2670;42.720;23.336;2024-03-02T11:04:24;38.80;;;19.03;;
5295;SDS011;2670;42.720;23.336;2024-03-02T11:06:52;40.10;;;20.87;;
5295;SDS011;2670;42.720;23.336;2024-03-02T11:09:25;36.73;;;19.27;;
5295;SDS011;2670;42.720;23.336;2024-03-02T11:11:54;48.83;;;22.57;;
5295;SDS011;2670;42.720;23.336;2024-03-02T11:14:29;34.87;;;17.93;;
5295;SDS011;2670;42.720;23.336;2024-03-02T11:16:58;32.63;;;17.30;;
5295;SDS011;2670;42.720;23.336;2024-03-02T11:19:26;39.30;;;19.00;;
5295;SDS011;2670;42.720;23.336;2024-03-02T11:21:54;31.83;;;17.03;;
5295;SDS011;2670;42.720;23.336;2024-03-02T11:24:29;32.30;;;17.30;;
5295;SDS011;2670;42.720;23.336;2024-03-02T11:26:59;31.50;;;16.80;;
5295;SDS011;2670;42.720;23.336;2024-03-02T11:32:20;31.67;;;16.67;;
5295;SDS011;2670;42.720;23.336;2024-03-02T11:34:48;39.50;;;17.63;;
5295;SDS011;2670;42.720;23.336;2024-03-02T11:37:16;32.50;;;17.50;;
5295;SDS011;2670;42.720;23.336;2024-03-02T11:39:45;39.50;;;19.83;;
5295;SDS011;2670;42.720;23.336;2024-03-02T11:42:13;31.13;;;17.30;;
5295;SDS011;2670;42.720;23.336;2024-03-02T11:44:42;41.47;;;19.27;;
5295;SDS011;2670;42.720;23.336;2024-03-02T11:47:11;36.47;;;17.30;;
5295;SDS011;2670;42.720;23.336;2024-03-02T11:49:41;35.20;;;17.50;;
5295;SDS011;2670;42.720;23.336;2024-03-02T11:52:09;29.57;;;17.10;;
5295;SDS011;2670;42.720;23.336;2024-03-02T11:54:36;32.57;;;17.67;;
5295;SDS011;2670;42.720;23.336;2024-03-02T11:57:07;29.27;;;16.17;;
5295;SDS011;2670;42.720;23.336;2024-03-02T11:59:34;30.90;;;16.50;;
5295;SDS011;2670;42.720;23.336;2024-03-02T12:02:01;31.80;;;16.87;;
5295;SDS011;2670;42.720;23.336;2024-03-02T12:04:28;34.23;;;17.90;;
5295;SDS011;2670;42.720;23.336;2024-03-02T12:06:56;33.40;;;17.00;;
5295;SDS011;2670;42.720;23.336;2024-03-02T12:09:25;31.20;;;16.00;;
5295;SDS011;2670;42.720;23.336;2024-03-02T12:12:02;29.07;;;15.57;;
5295;SDS011;2670;42.720;23.336;2024-03-02T12:14:31;30.37;;;16.90;;
5295;SDS011;2670;42.720;23.336;2024-03-02T12:16:59;47.60;;;25.87;;
5295;SDS011;2670;42.720;23.336;2024-03-02T12:19:25;43.97;;;25.03;;
5295;SDS011;2670;42.720;23.336;2024-03-02T12:21:52;57.80;;;35.17;;
5295;SDS011;2670;42.720;23.336;2024-03-02T12:24:20;56.77;;;35.93;;
5295;SDS011;2670;42.720;23.336;2024-03-02T12:26:47;52.73;;;29.93;;
5295;SDS011;2670;42.720;23.336;2024-03-02T12:29:15;49.13;;;27.63;;
5295;SDS011;2670;42.720;23.336;2024-03-02T12:31:43;26.77;;;16.23;;
5295;SDS011;2670;42.720;23.336;2024-03-02T12:34:11;28.73;;;16.07;;
5295;SDS011;2670;42.720;23.336;2024-03-02T12:36:39;28.37;;;14.80;;
5295;SDS011;2670;42.720;23.336;2024-03-02T12:39:08;29.50;;;15.80;;
5295;SDS011;2670;42.720;23.336;2024-03-02T12:41:35;25.33;;;14.23;;
5295;SDS011;2670;42.720;23.336;2024-03-02T12:44:03;25.90;;;14.90;;
5295;SDS011;2670;42.720;23.336;2024-03-02T12:46:30;33.43;;;17.37;;
5295;SDS011;2670;42.720;23.336;2024-03-02T12:49:04;32.10;;;16.77;;
5295;SDS011;2670;42.720;23.336;2024-03-02T12:51:34;31.33;;;17.93;;
5295;SDS011;2670;42.720;23.336;2024-03-02T12:54:01;27.63;;;16.03;;
5295;SDS011;2670;42.720;23.336;2024-03-02T12:56:30;25.20;;;15.20;;
5295;SDS011;2670;42.720;23.336;2024-03-02T12:58:58;27.77;;;15.13;;
5295;SDS011;2670;42.720;23.336;2024-03-02T13:01:25;25.97;;;14.90;;
5295;SDS011;2670;42.720;23.336;2024-03-02T13:03:52;27.10;;;14.60;;
5295;SDS011;2670;42.720;23.336;2024-03-02T13:06:21;33.30;;;15.93;;
5295;SDS011;2670;42.720;23.336;2024-03-02T13:08:48;28.70;;;15.43;;
5295;SDS011;2670;42.720;23.336;2024-03-02T13:11:16;28.63;;;15.93;;
5295;SDS011;2670;42.720;23.336;2024-03-02T13:13:43;28.20;;;16.13;;
5295;SDS011;2670;42.720;23.336;2024-03-02T13:16:10;32.10;;;17.20;;
5295;SDS011;2670;42.720;23.336;2024-03-02T13:18:38;31.60;;;17.57;;
5295;SDS011;2670;42.720;23.336;2024-03-02T13:21:05;30.67;;;15.90;;
5295;SDS011;2670;42.720;23.336;2024-03-02T13:23:33;27.37;;;16.80;;
5295;SDS011;2670;42.720;23.336;2024-03-02T13:25:59;32.83;;;17.87;;
5295;SDS011;2670;42.720;23.336;2024-03-02T13:28:27;26.27;;;15.20;;
5295;SDS011;2670;42.720;23.336;2024-03-02T13:30:53;25.43;;;15.07;;
5295;SDS011;2670;42.720;23.336;2024-03-02T13:33:20;26.10;;;14.67;;
5295;SDS011;2670;42.720;23.336;2024-03-02T13:35:48;28.90;;;15.73;;
5295;SDS011;2670;42.720;23.336;2024-03-02T13:38:16;26.73;;;16.03;;
5295;SDS011;2670;42.720;23.336;2024-03-02T13:40:44;29.60;;;15.67;;
5295;SDS011;2670;42.720;23.336;2024-03-02T13:43:11;36.17;;;16.50;;
5295;SDS011;2670;42.720;23.336;2024-03-02T13:45:38;35.73;;;16.40;;
5295;SDS011;2670;42.720;23.336;2024-03-02T13:48:05;30.00;;;16.13;;
5295;SDS011;2670;42.720;23.336;2024-03-02T13:50:33;50.00;;;24.80;;
5295;SDS011;2670;42.720;23.336;2024-03-02T13:52:59;29.40;;;16.30;;
5295;SDS011;2670;42.720;23.336;2024-03-02T13:55:26;34.20;;;17.50;;
5295;SDS011;2670;42.720;23.336;2024-03-02T13:57:54;30.40;;;16.50;;
5295;SDS011;2670;42.720;23.336;2024-03-02T14:00:21;27.67;;;16.70;;
5295;SDS011;2670;42.720;23.336;2024-03-02T14:02:48;45.57;;;19.23;;
5295;SDS011;2670;42.720;23.336;2024-03-02T14:05:15;34.60;;;17.97;;
5295;SDS011;2670;42.720;23.336;2024-03-02T14:07:42;35.93;;;19.83;;
5295;SDS011;2670;42.720;23.336;2024-03-02T14:10:09;45.63;;;20.53;;
5295;SDS011;2670;42.720;23.336;2024-03-02T14:12:36;47.10;;;23.10;;
5295;SDS011;2670;42.720;23.336;2024-03-02T14:15:05;47.20;;;23.87;;
5295;SDS011;2670;42.720;23.336;2024-03-02T14:17:33;38.33;;;19.43;;
5295;SDS011;2670;42.720;23.336;2024-03-02T14:20:00;38.80;;;18.80;;
5295;SDS011;2670;42.720;23.336;2024-03-02T14:22:27;36.70;;;17.60;;
5295;SDS011;2670;42.720;23.336;2024-03-02T14:24:53;36.20;;;17.73;;
5295;SDS011;2670;42.720;23.336;2024-03-02T14:27:20;36.27;;;19.67;;
5295;SDS011;2670;42.720;23.336;2024-03-02T14:29:50;34.63;;;19.43;;
5295;SDS011;2670;42.720;23.336;2024-03-02T14:32:19;31.87;;;17.43;;
5295;SDS011;2670;42.720;23.336;2024-03-02T14:34:46;38.37;;;19.57;;
5295;SDS011;2670;42.720;23.336;2024-03-02T14:37:13;63.70;;;30.00;;
5295;SDS011;2670;42.720;23.336;2024-03-02T14:39:40;32.27;;;19.20;;
5295;SDS011;2670;42.720;23.336;2024-03-02T14:42:07;36.73;;;19.07;;